Time;durP1;ratioP1;P1;durP2;ratioP2;P2;SDS_P1;SDS_P2;PMS_P1;PMS_P2;Temp;Humidity;BMP_temperature;BMP_pressure;BME280_temperature;BME280_humidity;BME280_pressure;Samples;Min_cycle;Max_cycle;Signal;HPM_P1;HPM_P2
2022/08/10 00:02:44;;;;;;;4.75;3.25;;;16.70;99.90;;;;;;5090131;28;20521;-69
2022/08/10 00:05:10;;;;;;;4.80;3.40;;;16.80;99.90;;;;;;5090234;28;20151;-69
2022/08/10 00:07:35;;;;;;;3.60;3.03;;;16.70;99.90;;;;;;5089474;28;20498;-69
2022/08/10 00:10:02;;;;;;;4.18;3.30;;;16.70;99.90;;;;;;5087524;28;20101;-69
2022/08/10 00:12:28;;;;;;;4.78;3.50;;;16.70;99.90;;;;;;5089632;28;20101;-69
2022/08/10 00:14:53;;;;;;;6.43;2.90;;;16.70;99.90;;;;;;5088598;28;20492;-69
2022/08/10 00:17:19;;;;;;;7.15;3.40;;;16.70;99.90;;;;;;5090004;28;20039;-69
2022/08/10 00:19:44;;;;;;;6.60;3.42;;;16.70;99.90;;;;;;5089856;28;20166;-69
2022/08/10 00:22:10;;;;;;;5.38;3.72;;;16.70;99.90;;;;;;5089761;28;20169;-69
2022/08/10 00:24:36;;;;;;;4.55;3.58;;;16.70;99.90;;;;;;5089572;28;20496;-69
2022/08/10 00:27:02;;;;;;;6.78;3.80;;;16.60;99.90;;;;;;5088468;28;20048;-69
2022/08/10 00:29:27;;;;;;;6.15;3.55;;;16.60;99.90;;;;;;5090018;28;20093;-69
2022/08/10 00:31:53;;;;;;;4.95;4.30;;;16.50;99.90;;;;;;5089730;28;20048;-69
2022/08/10 00:34:18;;;;;;;6.53;4.05;;;16.50;99.90;;;;;;5089562;28;20075;-69
2022/08/10 00:36:44;;;;;;;7.05;3.72;;;16.50;99.90;;;;;;5089786;28;20750;-69
2022/08/10 00:39:09;;;;;;;4.57;3.88;;;16.60;99.90;;;;;;5091214;28;20048;-69
2022/08/10 00:41:35;;;;;;;5.70;3.78;;;16.50;99.90;;;;;;5101081;28;20087;-69
2022/08/10 00:44:00;;;;;;;5.55;3.70;;;16.50;99.90;;;;;;5094226;28;20495;-69
2022/08/10 00:46:26;;;;;;;8.23;3.95;;;16.50;99.90;;;;;;5088391;28;20044;-69
2022/08/10 00:48:52;;;;;;;5.45;3.80;;;16.40;99.90;;;;;;5089735;28;20036;-69
2022/08/10 00:51:17;;;;;;;4.82;4.25;;;16.40;99.90;;;;;;5089688;28;20086;-69
2022/08/10 00:53:43;;;;;;;5.25;4.03;;;16.40;99.90;;;;;;5089244;28;20040;-69
2022/08/10 00:56:09;;;;;;;6.20;4.15;;;16.40;99.90;;;;;;5088351;28;20443;-69
2022/08/10 00:58:37;;;;;;;4.30;3.90;;;16.40;99.90;;;;;;5089907;28;20098;-69
2022/08/10 01:01:02;;;;;;;6.18;4.50;;;16.40;99.90;;;;;;5088424;28;20047;-69
2022/08/10 01:03:28;;;;;;;6.32;4.53;;;16.40;99.90;;;;;;5089186;28;20032;-69
2022/08/10 01:06:09;;;;;;;5.50;4.30;;;16.40;99.90;;;;;;5093302;28;20050;-69
2022/08/10 01:08:58;;;;;;;4.47;3.97;;;16.40;99.90;;;;;;5097705;28;20064;-70
2022/08/10 01:11:42;;;;;;;6.50;4.72;;;16.30;99.90;;;;;;5091317;28;20451;-69
2022/08/10 01:14:19;;;;;;;5.60;4.90;;;16.30;99.90;;;;;;5089416;28;20044;-69
2022/08/10 01:17:16;;;;;;;7.32;4.90;;;16.20;99.90;;;;;;5088143;28;20040;-69
2022/08/10 01:19:41;;;;;;;6.47;4.75;;;16.20;99.90;;;;;;5089193;28;20382;-69
2022/08/10 01:22:30;;;;;;;6.00;4.53;;;16.20;99.90;;;;;;5089247;28;20061;-68
2022/08/10 01:25:10;;;;;;;8.40;5.00;;;16.20;99.90;;;;;;5089234;28;20040;-69
2022/08/10 01:27:59;;;;;;;8.55;5.30;;;16.20;99.90;;;;;;5093156;28;20036;-69
2022/08/10 01:30:28;;;;;;;6.47;4.45;;;16.20;99.90;;;;;;5092739;28;20054;-69
2022/08/10 01:33:24;;;;;;;6.22;4.78;;;16.20;99.90;;;;;;5092720;28;20047;-69
2022/08/10 01:35:54;;;;;;;8.50;5.30;;;16.20;99.90;;;;;;5092855;28;20044;-69
2022/08/10 01:38:27;;;;;;;7.03;5.50;;;16.20;99.90;;;;;;5092792;28;20082;-69
2022/08/10 01:41:05;;;;;;;6.15;4.88;;;16.20;99.90;;;;;;5092555;28;20103;-69
2022/08/10 01:43:35;;;;;;;5.47;4.72;;;16.10;99.90;;;;;;5091105;28;20085;-69
2022/08/10 01:46:04;;;;;;;6.97;5.07;;;16.20;99.90;;;;;;5091621;28;20502;-69
2022/08/10 01:48:33;;;;;;;8.25;5.63;;;16.20;99.90;;;;;;5091615;28;20500;-69
2022/08/10 01:51:13;;;;;;;9.40;5.70;;;16.10;99.90;;;;;;5100435;28;20054;-69
2022/08/10 01:54:01;;;;;;;10.85;6.32;;;16.20;99.90;;;;;;5097607;28;20070;-69
2022/08/10 01:56:33;;;;;;;8.90;6.00;;;16.20;99.90;;;;;;5092693;28;20069;-69
2022/08/10 01:59:06;;;;;;;7.43;6.55;;;16.20;99.90;;;;;;5092664;28;20048;-69
2022/08/10 02:01:38;;;;;;;10.82;6.88;;;16.20;99.90;;;;;;5091292;28;20486;-69
2022/08/10 02:04:09;;;;;;;9.43;6.07;;;16.10;99.90;;;;;;5092417;28;20121;-69
2022/08/10 02:06:40;;;;;;;9.15;6.80;;;16.10;99.90;;;;;;5092594;28;20032;-69
2022/08/10 02:09:07;;;;;;;10.00;6.63;;;16.10;99.90;;;;;;5092395;28;20071;-69
2022/08/10 02:11:35;;;;;;;10.05;6.82;;;16.10;99.90;;;;;;5090983;28;20063;-69
2022/08/10 02:14:02;;;;;;;9.77;6.85;;;16.10;99.90;;;;;;5091871;28;20094;-69
2022/08/10 02:16:29;;;;;;;10.43;6.72;;;16.00;99.90;;;;;;5092071;28;20047;-69
2022/08/10 02:18:56;;;;;;;10.95;7.50;;;16.00;99.90;;;;;;5092000;28;20063;-68
2022/08/10 02:21:23;;;;;;;11.68;7.28;;;15.90;99.90;;;;;;5091818;28;20531;-68
2022/08/10 02:23:51;;;;;;;10.77;7.05;;;16.00;99.90;;;;;;5091640;28;20387;-68
2022/08/10 02:26:17;;;;;;;10.07;7.15;;;16.00;99.90;;;;;;5091936;28;20044;-68
2022/08/10 02:28:44;;;;;;;9.95;7.03;;;15.90;99.90;;;;;;5097295;28;20043;-68
2022/08/10 02:31:15;;;;;;;12.35;7.35;;;15.90;99.90;;;;;;5098762;28;20120;-68
2022/08/10 02:33:43;;;;;;;10.20;7.80;;;15.90;99.90;;;;;;5091718;28;20054;-68
2022/08/10 02:36:10;;;;;;;9.70;6.88;;;15.90;99.90;;;;;;5091630;28;20441;-68
2022/08/10 02:38:48;;;;;;;10.88;7.15;;;15.90;99.90;;;;;;5090460;28;20146;-68
2022/08/10 02:41:21;;;;;;;12.73;7.32;;;15.90;99.90;;;;;;5091485;28;20136;-68
2022/08/10 02:44:04;;;;;;;11.57;8.77;;;15.80;99.90;;;;;;5091016;28;20349;-68
2022/08/10 02:46:35;;;;;;;;;;;15.90;99.90;;;;;;5090396;28;20047;-68
2022/08/10 02:49:03;;;;;;;12.23;8.18;;;15.80;99.90;;;;;;5091299;28;19920;-68
2022/08/10 02:51:44;;;;;;;10.90;7.70;;;15.80;99.90;;;;;;5089641;28;20051;-69
2022/08/10 02:54:16;;;;;;;11.45;8.07;;;15.80;99.90;;;;;;5090937;28;20054;-67
2022/08/10 02:57:04;;;;;;;11.35;7.63;;;15.80;99.90;;;;;;5091250;28;20040;-67
2022/08/10 02:59:44;;;;;;;11.35;8.23;;;15.70;99.90;;;;;;5092202;28;20047;-68
2022/08/10 03:02:17;;;;;;;12.38;8.45;;;15.70;99.90;;;;;;5099923;28;20119;-68
2022/08/10 03:04:48;;;;;;;11.70;7.90;;;15.70;99.90;;;;;;5096652;28;20115;-68
2022/08/10 03:07:16;;;;;;;11.00;8.10;;;15.80;99.90;;;;;;5091850;28;20090;-68
2022/08/10 03:09:44;;;;;;;13.88;8.40;;;15.70;99.90;;;;;;5091503;28;20048;-67
2022/08/10 03:12:12;;;;;;;14.25;9.65;;;15.70;99.90;;;;;;5090866;28;20073;-67
2022/08/10 03:14:39;;;;;;;12.63;9.10;;;15.80;99.90;;;;;;5089325;28;20071;-67
2022/08/10 03:17:07;;;;;;;12.90;8.63;;;15.80;99.90;;;;;;5089459;28;20055;-67
2022/08/10 03:19:34;;;;;;;12.73;8.38;;;15.70;99.90;;;;;;5090601;28;20086;-67
2022/08/10 03:22:02;;;;;;;15.77;8.85;;;15.70;99.90;;;;;;5089368;28;20541;-67
2022/08/10 03:24:29;;;;;;;9.75;7.75;;;15.70;99.90;;;;;;5090669;28;20071;-67
2022/08/10 03:26:56;;;;;;;10.27;7.60;;;15.70;99.90;;;;;;5090827;28;20512;-67
2022/08/10 03:29:22;;;;;;;13.90;8.68;;;15.80;99.90;;;;;;5089365;28;20036;-67
2022/08/10 03:31:49;;;;;;;13.20;8.73;;;15.70;99.90;;;;;;5090846;28;20123;-67
2022/08/10 03:34:18;;;;;;;14.02;8.48;;;15.70;99.90;;;;;;5090426;28;20040;-67
2022/08/10 03:36:43;;;;;;;13.45;8.82;;;15.70;99.90;;;;;;5090545;28;20093;-67
2022/08/10 03:39:10;;;;;;;12.85;9.43;;;15.70;99.90;;;;;;5090826;28;20028;-67
2022/08/10 03:41:47;;;;;;;13.70;9.18;;;15.70;99.90;;;;;;5090488;28;20036;-67
2022/08/10 03:44:17;;;;;;;15.38;9.18;;;15.70;99.90;;;;;;5088800;28;20096;-67
2022/08/10 03:46:44;;;;;;;12.80;8.23;;;15.70;99.90;;;;;;5089106;28;20089;-68
2022/08/10 03:49:11;;;;;;;16.67;8.65;;;15.60;99.90;;;;;;5091135;28;20161;-68
2022/08/10 03:51:38;;;;;;;12.73;9.48;;;15.60;99.90;;;;;;5092458;28;20054;-68
2022/08/10 03:54:04;;;;;;;13.25;8.88;;;15.60;99.90;;;;;;5096377;28;20449;-68
2022/08/10 03:56:31;;;;;;;18.42;9.40;;;15.60;99.90;;;;;;5090399;28;20503;-67
2022/08/10 03:58:57;;;;;;;12.32;8.48;;;15.70;99.90;;;;;;5090238;28;20036;-67
2022/08/10 04:01:23;;;;;;;13.93;8.88;;;15.70;99.90;;;;;;5089111;28;20036;-67
2022/08/10 04:03:49;;;;;;;16.33;9.13;;;15.50;99.90;;;;;;5089716;28;20048;-68
2022/08/10 04:06:15;;;;;;;13.10;8.57;;;15.40;99.90;;;;;;5087254;28;20120;-68
2022/08/10 04:08:41;;;;;;;11.02;8.35;;;15.60;99.90;;;;;;5087199;28;20056;-68
2022/08/10 04:11:09;;;;;;;15.15;9.07;;;15.50;99.90;;;;;;5097748;28;20064;-68
2022/08/10 04:13:35;;;;;;;12.02;8.35;;;15.50;99.90;;;;;;5099735;28;20567;-68
2022/08/10 04:16:00;;;;;;;13.77;8.85;;;15.50;99.90;;;;;;5088760;28;20123;-68
2022/08/10 04:18:26;;;;;;;12.55;7.55;;;15.50;99.90;;;;;;5087553;28;20028;-69
2022/08/10 04:20:57;;;;;;;13.43;9.85;;;15.60;99.90;;;;;;5089354;28;20040;-68
2022/08/10 04:23:29;;;;;;;14.83;8.20;;;15.60;99.90;;;;;;5089686;28;20107;-68
2022/08/10 04:25:55;;;;;;;12.40;8.38;;;15.60;99.90;;;;;;5090097;28;20047;-68
2022/08/10 04:28:21;;;;;;;14.18;9.23;;;15.50;99.90;;;;;;5089647;28;20075;-68
2022/08/10 04:30:50;;;;;;;14.70;9.38;;;15.60;99.90;;;;;;5090008;28;20044;-68
2022/08/10 04:33:19;;;;;;;18.73;9.40;;;15.60;99.90;;;;;;5089758;28;20044;-68
2022/08/10 04:35:46;;;;;;;12.20;8.52;;;15.60;99.90;;;;;;5089921;28;20540;-68
2022/08/10 04:38:13;;;;;;;11.45;8.23;;;15.50;99.90;;;;;;5088562;28;20055;-68
2022/08/10 04:40:39;;;;;;;11.13;8.27;;;15.50;99.90;;;;;;5089805;28;20492;-68
2022/08/10 04:43:06;;;;;;;16.30;8.95;;;15.70;99.90;;;;;;5088208;28;20131;-68
2022/08/10 04:45:32;;;;;;;14.65;8.85;;;15.60;99.90;;;;;;5088722;28;20044;-68
2022/08/10 04:47:58;;;;;;;13.40;9.40;;;15.50;99.90;;;;;;5089863;28;20040;-68
2022/08/10 04:50:24;;;;;;;15.02;9.15;;;15.50;99.90;;;;;;5071672;28;20058;-68
2022/08/10 04:52:50;;;;;;;14.30;9.30;;;15.50;99.90;;;;;;5089561;28;20057;-68
2022/08/10 04:55:16;;;;;;;12.40;8.65;;;15.40;99.90;;;;;;5088231;28;20044;-68
2022/08/10 04:57:42;;;;;;;16.60;9.77;;;15.30;99.90;;;;;;5089976;28;20036;-68
2022/08/10 05:00:08;;;;;;;14.27;9.40;;;15.40;99.90;;;;;;5088470;28;20081;-68
2022/08/10 05:02:33;;;;;;;14.68;9.90;;;15.40;99.90;;;;;;5092128;28;20097;-68
2022/08/10 05:04:59;;;;;;;16.55;10.05;;;15.40;99.90;;;;;;5092292;28;20044;-68
2022/08/10 05:07:25;;;;;;;17.50;10.05;;;15.40;99.90;;;;;;5093413;28;20036;-68
2022/08/10 05:09:51;;;;;;;16.58;10.88;;;15.40;99.90;;;;;;5093446;28;20116;-68
2022/08/10 05:12:16;;;;;;;13.50;9.80;;;15.50;99.90;;;;;;5093610;28;20555;-68
2022/08/10 05:14:42;;;;;;;15.95;10.10;;;15.60;99.90;;;;;;5094246;28;20036;-68
2022/08/10 05:17:07;;;;;;;16.05;9.90;;;15.60;99.90;;;;;;5093521;28;20050;-68
2022/08/10 05:19:33;;;;;;;12.60;9.38;;;15.60;99.90;;;;;;5095443;28;20040;-68
2022/08/10 05:21:59;;;;;;;16.45;10.30;;;15.80;99.90;;;;;;5103377;28;20028;-68
2022/08/10 05:24:24;;;;;;;16.77;9.63;;;16.00;99.90;;;;;;5096962;28;20036;-68
2022/08/10 05:26:50;;;;;;;15.07;10.10;;;16.10;99.90;;;;;;5092971;28;20044;-68
2022/08/10 05:29:15;;;;;;;15.35;9.98;;;16.20;99.90;;;;;;5093142;28;20044;-68
2022/08/10 05:31:42;;;;;;;16.98;10.10;;;16.30;99.90;;;;;;5093117;28;20048;-68
2022/08/10 05:34:08;;;;;;;20.65;10.75;;;16.50;99.90;;;;;;5092600;28;20052;-68
2022/08/10 05:36:33;;;;;;;16.13;10.02;;;16.50;99.90;;;;;;5092904;28;20426;-67
2022/08/10 05:39:00;;;;;;;13.48;9.85;;;16.60;99.90;;;;;;5092809;28;20103;-67
2022/08/10 05:41:27;;;;;;;14.00;9.10;;;16.60;99.90;;;;;;5091302;28;20407;-68
2022/08/10 05:43:54;;;;;;;12.32;8.80;;;16.70;99.90;;;;;;5092526;28;20040;-67
2022/08/10 05:46:19;;;;;;;12.57;9.32;;;16.90;99.90;;;;;;5092953;28;20040;-67
2022/08/10 05:48:45;;;;;;;14.35;8.98;;;16.90;99.90;;;;;;5092657;28;20093;-68
2022/08/10 05:51:11;;;;;;;13.95;9.63;;;17.10;99.90;;;;;;5092789;28;20042;-67
2022/08/10 05:53:37;;;;;;;15.68;9.20;;;17.20;99.90;;;;;;5092082;28;20032;-68
2022/08/10 05:56:05;;;;;;;12.25;8.82;;;17.20;99.90;;;;;;5092670;28;20051;-67
2022/08/10 05:58:32;;;;;;;16.27;9.40;;;17.40;99.90;;;;;;5092835;28;20040;-68
2022/08/10 06:01:00;;;;;;;13.85;8.63;;;17.40;99.90;;;;;;5092534;28;20498;-67
2022/08/10 06:03:31;;;;;;;12.45;8.75;;;17.40;99.90;;;;;;5092231;28;20047;-67
2022/08/10 06:05:59;;;;;;;12.88;8.75;;;17.50;99.90;;;;;;5092618;28;20043;-68
2022/08/10 06:08:30;;;;;;;14.80;8.93;;;17.50;99.90;;;;;;5092204;28;20055;-68
2022/08/10 06:10:58;;;;;;;10.60;8.15;;;17.50;99.90;;;;;;5091154;28;20542;-68
2022/08/10 06:16:11;;;;;;;11.30;8.32;;;17.80;99.90;;;;;;5092196;28;20044;-68
2022/08/10 06:18:38;;;;;;;9.90;7.93;;;17.80;99.90;;;;;;5091875;28;20060;-68
2022/08/10 06:21:08;;;;;;;12.35;8.40;;;17.80;99.90;;;;;;5091995;28;20130;-68
2022/08/10 06:23:35;;;;;;;10.40;7.50;;;18.00;99.90;;;;;;5091703;28;20040;-68
2022/08/10 06:26:02;;;;;;;14.98;8.98;;;18.10;99.90;;;;;;5091926;28;20051;-68
2022/08/10 06:28:32;;;;;;;10.25;8.05;;;18.00;99.90;;;;;;5092197;28;20169;-68
2022/08/10 06:31:00;;;;;;;10.65;7.78;;;18.10;99.90;;;;;;5101223;28;20043;-69
2022/08/10 06:33:30;;;;;;;10.27;6.72;;;18.10;99.90;;;;;;5101009;28;20492;-68
2022/08/10 06:35:58;;;;;;;10.13;7.38;;;18.10;99.90;;;;;;5093520;28;20092;-67
2022/08/10 06:38:27;;;;;;;9.07;6.82;;;18.10;99.90;;;;;;5092354;28;20380;-67
2022/08/10 06:40:57;;;;;;;12.90;7.05;;;18.20;99.90;;;;;;5091590;28;20115;-67
2022/08/10 06:43:23;;;;;;;12.52;7.30;;;18.30;99.90;;;;;;5089929;28;20108;-67
2022/08/10 06:45:59;;;;;;;10.18;7.07;;;18.40;99.90;;;;;;5091633;28;20061;-70
2022/08/10 06:48:33;;;;;;;12.90;7.55;;;18.40;99.90;;;;;;5090356;28;20036;-69
2022/08/10 06:51:03;;;;;;;10.60;6.13;;;18.40;99.90;;;;;;5091700;28;20165;-68
2022/08/10 06:53:38;;;;;;;11.63;6.35;;;18.50;99.90;;;;;;5089853;28;20100;-68
2022/08/10 06:56:10;;;;;;;9.77;6.60;;;18.50;99.90;;;;;;5092072;28;20090;-68
2022/08/10 06:58:43;;;;;;;10.75;6.05;;;18.50;99.90;;;;;;5090437;28;20047;-69
2022/08/10 07:01:13;;;;;;;10.40;5.80;;;18.70;99.90;;;;;;5091813;28;20155;-69
2022/08/10 07:03:45;;;;;;;10.27;6.35;;;18.60;99.90;;;;;;5091332;28;20503;-69
2022/08/10 07:06:14;;;;;;;10.95;6.85;;;18.60;99.90;;;;;;5091887;28;20047;-69
2022/08/10 07:08:40;;;;;;;10.10;6.07;;;18.80;99.90;;;;;;5090309;28;20040;-69
2022/08/10 07:11:07;;;;;;;8.20;5.38;;;18.90;99.90;;;;;;5090560;28;20052;-69
2022/08/10 07:13:36;;;;;;;13.68;6.20;;;19.00;99.90;;;;;;5091399;28;20036;-69
2022/08/10 07:16:03;;;;;;;13.23;5.97;;;19.00;99.90;;;;;;5091615;28;20127;-69
2022/08/10 07:18:30;;;;;;;10.25;6.50;;;19.00;99.90;;;;;;5090733;28;20443;-69
2022/08/10 07:20:57;;;;;;;11.40;6.18;;;19.10;99.90;;;;;;5091729;28;20115;-69
2022/08/10 07:23:24;;;;;;;9.50;5.47;;;19.20;99.90;;;;;;5090492;28;20040;-69
2022/08/10 07:25:51;;;;;;;10.65;5.78;;;19.20;99.90;;;;;;5091579;28;20040;-69
2022/08/10 07:28:19;;;;;;;9.52;5.70;;;19.20;99.90;;;;;;5091000;28;20568;-68
2022/08/10 07:30:45;;;;;;;8.82;5.03;;;19.30;99.90;;;;;;5091283;28;20098;-68
2022/08/10 07:33:16;;;;;;;10.07;5.35;;;19.40;99.90;;;;;;5091065;28;20040;-68
2022/08/10 07:35:44;;;;;;;7.35;5.47;;;19.40;99.90;;;;;;5091165;28;20044;-69
2022/08/10 07:38:21;;;;;;;7.72;5.57;;;19.40;99.90;;;;;;5089662;28;20142;-69
2022/08/10 07:40:48;;;;;;;7.47;5.43;;;19.40;99.90;;;;;;5098847;28;20040;-69
2022/08/10 07:43:16;;;;;;;5.95;4.82;;;19.40;99.90;;;;;;5099256;28;20032;-69
2022/08/10 07:45:42;;;;;;;9.18;5.03;;;19.40;99.90;;;;;;5091025;28;20043;-69
2022/08/10 07:48:29;;;;;;;8.85;4.75;;;19.50;99.90;;;;;;5089299;28;20052;-68
2022/08/10 07:50:58;;;;;;;8.15;4.70;;;19.70;99.90;;;;;;5089698;28;20754;-69
2022/08/10 07:53:26;;;;;;;6.75;5.20;;;19.90;99.90;;;;;;5090518;28;20718;-69
2022/08/10 07:55:54;;;;;;;5.95;4.93;;;19.90;99.90;;;;;;5091331;28;20129;-69
2022/08/10 07:58:26;;;;;;;8.32;5.13;;;19.80;99.90;;;;;;5089451;28;20115;-68
2022/08/10 08:00:53;;;;;;;6.18;4.53;;;19.90;99.90;;;;;;5089446;28;20040;-69
2022/08/10 08:03:27;;;;;;;8.35;4.95;;;20.00;99.90;;;;;;5090505;28;20165;-69
2022/08/10 08:05:55;;;;;;;8.65;4.55;;;20.00;99.90;;;;;;5090513;28;20044;-69
2022/08/10 08:08:22;;;;;;;7.32;4.57;;;20.20;99.90;;;;;;5090852;28;20086;-68
2022/08/10 08:10:49;;;;;;;8.00;3.80;;;20.30;99.90;;;;;;5089077;28;20545;-69
2022/08/10 08:13:16;;;;;;;12.02;4.40;;;20.40;99.90;;;;;;5089950;28;20036;-67
2022/08/10 08:15:42;;;;;;;9.07;4.55;;;20.50;99.90;;;;;;5090395;28;20377;-68
2022/08/10 08:18:10;;;;;;;5.00;3.97;;;20.50;99.90;;;;;;5078084;28;20754;-68
2022/08/10 08:20:36;;;;;;;5.15;4.38;;;20.70;99.90;;;;;;5058701;28;20439;-68
2022/08/10 08:23:03;;;;;;;5.63;4.22;;;20.70;99.90;;;;;;5059376;28;20453;-68
2022/08/10 08:25:30;;;;;;;6.47;3.80;;;20.70;99.90;;;;;;5057773;28;20115;-68
2022/08/10 08:27:58;;;;;;;7.28;4.20;;;20.80;99.90;;;;;;5060600;28;20044;-69
2022/08/10 08:30:24;;;;;;;5.72;3.90;;;20.80;99.90;;;;;;5068644;28;20080;-69
2022/08/10 08:33:02;;;;;;;5.70;3.75;;;20.90;99.90;;;;;;5069931;28;20040;-69
2022/08/10 08:35:31;;;;;;;7.60;4.63;;;21.00;99.90;;;;;;5072011;28;20076;-69
2022/08/10 08:37:58;;;;;;;7.18;3.45;;;21.00;99.90;;;;;;5074144;28;20036;-68
2022/08/10 08:40:29;;;;;;;7.25;3.30;;;21.10;99.90;;;;;;5073906;28;20040;-68
2022/08/10 08:43:34;;;;;;;7.53;3.55;;;21.10;99.90;;;;;;5073431;28;20045;-69
2022/08/10 08:46:39;;;;;;;7.93;3.47;;;21.20;99.90;;;;;;5069769;28;20051;-69
2022/08/10 08:49:08;;;;;;;6.07;3.67;;;21.30;99.90;;;;;;5075868;28;20094;-68
2022/08/10 08:52:12;;;;;;;8.60;4.50;;;21.40;99.90;;;;;;5081155;28;20074;-69
2022/08/10 08:54:53;;;;;;;4.90;3.70;;;21.60;99.90;;;;;;5069453;28;20133;-68
2022/08/10 08:57:44;;;;;;;5.20;3.13;;;21.70;99.90;;;;;;5073551;28;20047;-67
2022/08/10 09:00:17;;;;;;;7.75;3.33;;;21.60;99.90;;;;;;5074059;28;20085;-69
2022/08/10 09:03:19;;;;;;;8.18;3.38;;;21.80;99.90;;;;;;5073496;28;20036;-69
2022/08/10 09:06:03;;;;;;;;;;;21.90;99.90;;;;;;5074124;28;20044;-69
2022/08/10 09:09:00;;;;;;;6.45;3.17;;;21.90;99.90;;;;;;5070541;28;19924;-69
2022/08/10 09:11:58;;;;;;;7.25;3.10;;;22.00;99.90;;;;;;5073383;28;20040;-68
2022/08/10 09:14:34;;;;;;;8.77;3.50;;;22.20;99.90;;;;;;5030054;28;20057;-68
2022/08/10 09:17:26;;;;;;;7.10;2.97;;;22.20;99.90;;;;;;5026120;28;20135;-69
2022/08/10 09:20:23;;;;;;;7.53;2.85;;;22.20;99.90;;;;;;5030082;28;20042;-69
2022/08/10 09:22:58;;;;;;;6.70;2.25;;;22.40;99.90;;;;;;5027392;28;20122;-70
2022/08/10 09:25:31;;;;;;;7.78;2.70;;;22.70;99.90;;;;;;5030543;28;20037;-68
2022/08/10 09:28:08;;;;;;;5.18;2.65;;;22.70;99.90;;;;;;5030358;28;20038;-71
2022/08/10 09:30:45;;;;;;;9.93;2.65;;;22.60;99.90;;;;;;5030186;28;20046;-71
2022/08/10 09:33:14;;;;;;;7.65;2.55;;;22.70;99.90;;;;;;5029990;28;20049;-71
2022/08/10 09:36:06;;;;;;;5.70;2.17;;;22.80;99.90;;;;;;5014004;28;20525;-71
2022/08/10 09:38:36;;;;;;;;;;;22.90;99.90;;;;;;5014167;28;20045;-71
2022/08/10 09:41:39;;;;;;;3.65;2.35;;;23.10;99.90;;;;;;5022393;28;19921;-71
2022/08/10 09:44:38;;;;;;;6.97;2.33;;;23.40;99.90;;;;;;5016116;28;20053;-70
2022/08/10 09:47:27;;;;;;;3.17;1.90;;;23.20;99.90;;;;;;5019023;28;20220;-70
2022/08/10 09:50:14;;;;;;;5.00;1.90;;;23.40;99.90;;;;;;4999543;28;20075;-70
2022/08/10 09:53:02;;;;;;;4.88;2.22;;;23.30;99.90;;;;;;5061732;28;20040;-71
2022/08/10 09:55:54;;;;;;;5.90;2.15;;;23.40;99.90;;;;;;5058829;28;20100;-71
2022/08/10 09:58:23;;;;;;;;;;;23.70;99.90;;;;;;5066828;28;20032;-71
2022/08/10 10:01:04;;;;;;;5.88;2.15;;;23.70;99.90;;;;;;5069784;28;20328;-71
2022/08/10 10:03:43;;;;;;;4.00;2.00;;;23.70;99.90;;;;;;5070261;28;20036;-71
2022/08/10 10:06:16;;;;;;;6.38;2.20;;;23.70;99.90;;;;;;5073200;28;20102;-69
2022/08/10 10:08:51;;;;;;;3.05;1.98;;;23.60;99.90;;;;;;5069413;28;20040;-68
2022/08/10 10:11:34;;;;;;;4.05;2.00;;;23.70;99.90;;;;;;5072624;28;20043;-68
2022/08/10 10:14:32;;;;;;;3.75;1.85;;;23.90;99.90;;;;;;5063591;28;20033;-69
2022/08/10 10:17:05;;;;;;;4.88;2.00;;;24.10;99.90;;;;;;5052504;28;20402;-69
2022/08/10 10:19:36;;;;;;;4.00;1.55;;;24.10;99.90;;;;;;5051885;28;20032;-69
2022/08/10 10:22:35;;;;;;;9.77;1.92;;;24.10;99.90;;;;;;5052094;28;20129;-69
2022/08/10 10:25:29;;;;;;;3.47;1.60;;;24.30;99.90;;;;;;5050822;28;20413;-68
2022/08/10 10:28:30;;;;;;;11.48;1.70;;;24.10;99.90;;;;;;5051912;28;20052;-68
2022/08/10 10:31:20;;;;;;;7.15;2.08;;;24.10;99.90;;;;;;5052272;28;20424;-69
2022/08/10 10:33:58;;;;;;;6.38;2.00;;;24.20;99.90;;;;;;5053284;28;20048;-69
2022/08/10 10:36:26;;;;;;;7.07;1.73;;;24.20;99.90;;;;;;5055316;28;20096;-69
2022/08/10 10:38:54;;;;;;;9.07;2.47;;;24.30;99.90;;;;;;5052028;28;20155;-69
2022/08/10 10:41:43;;;;;;;3.53;1.55;;;24.50;99.90;;;;;;5051496;28;20167;-69
2022/08/10 10:44:44;;;;;;;2.72;1.52;;;24.40;99.90;;;;;;5051826;28;20041;-69
2022/08/10 10:47:45;;;;;;;2.45;1.58;;;24.30;99.90;;;;;;5050398;28;20095;-69
2022/08/10 10:50:42;;;;;;;2.92;2.13;;;24.30;99.90;;;;;;5051785;28;20078;-69
2022/08/10 10:53:23;;;;;;;4.43;1.73;;;24.30;99.90;;;;;;5051242;28;20045;-69
2022/08/10 10:56:17;;;;;;;5.35;1.90;;;24.40;99.90;;;;;;5051542;28;20041;-69
2022/08/10 10:59:14;;;;;;;4.32;1.70;;;24.40;99.90;;;;;;5050598;28;20032;-69
2022/08/10 11:02:05;;;;;;;3.95;1.45;;;24.60;99.90;;;;;;5051229;28;20636;-69
2022/08/10 11:04:41;;;;;;;2.67;1.48;;;24.60;99.90;;;;;;5051882;28;20567;-69
2022/08/10 11:07:26;;;;;;;4.60;1.70;;;24.60;99.90;;;;;;5063111;28;20081;-69
2022/08/10 11:09:58;;;;;;;3.80;1.50;;;24.70;99.90;;;;;;5068376;28;20080;-69
2022/08/10 11:12:32;;;;;;;1.95;1.10;;;24.90;99.80;;;;;;5051308;28;20045;-70
2022/08/10 11:15:03;;;;;;;2.63;1.00;;;25.10;97.20;;;;;;5051435;28;20044;-69
2022/08/10 11:17:37;;;;;;;7.85;1.45;;;25.00;98.40;;;;;;5050022;28;20051;-69
2022/08/10 11:20:20;;;;;;;4.13;1.77;;;25.20;99.00;;;;;;5050388;28;20033;-69
2022/08/10 11:23:03;;;;;;;5.32;1.52;;;25.10;98.60;;;;;;5051042;28;20100;-70
2022/08/10 11:25:37;;;;;;;4.53;1.83;;;25.00;99.10;;;;;;5051304;28;20412;-69
2022/08/10 11:28:15;;;;;;;4.53;1.70;;;25.20;98.40;;;;;;5051442;28;20069;-70
2022/08/10 11:30:46;;;;;;;5.53;1.55;;;25.00;99.00;;;;;;5050964;28;20405;-69
2022/08/10 11:33:42;;;;;;;4.75;1.50;;;25.20;98.30;;;;;;5052821;28;20477;-70
2022/08/10 11:36:23;;;;;;;2.35;1.33;;;25.30;97.30;;;;;;5057154;28;20115;-70
2022/08/10 11:39:12;;;;;;;12.07;2.07;;;25.40;97.50;;;;;;5059651;28;20040;-71
2022/08/10 11:41:44;;;;;;;7.63;1.48;;;25.50;97.10;;;;;;5057492;28;20064;-71
2022/08/10 11:44:12;;;;;;;1.50;1.40;;;25.50;97.10;;;;;;5039185;28;20044;-70
2022/08/10 11:46:45;;;;;;;7.28;1.45;;;25.90;97.70;;;;;;5057049;28;21509;-70
2022/08/10 11:49:35;;;;;;;5.97;1.50;;;25.80;97.20;;;;;;5056444;28;20047;-70
2022/08/10 11:52:37;;;;;;;4.45;1.45;;;25.80;97.00;;;;;;5042742;28;20061;-70
2022/08/10 11:55:11;;;;;;;8.60;1.33;;;25.80;97.30;;;;;;5049826;28;20033;-70
2022/08/10 11:57:38;;;;;;;10.60;1.42;;;25.70;97.10;;;;;;5052895;28;20278;-70
2022/08/10 12:00:07;;;;;;;5.13;1.50;;;25.70;97.50;;;;;;5059510;28;20033;-70
2022/08/10 12:02:39;;;;;;;5.40;1.50;;;25.70;96.90;;;;;;5058303;28;20041;-71
2022/08/10 12:05:09;;;;;;;2.75;1.42;;;25.80;96.90;;;;;;5051900;28;20467;-70
2022/08/10 12:07:41;;;;;;;4.82;1.40;;;26.00;97.20;;;;;;5055383;28;20124;-71
2022/08/10 12:10:08;;;;;;;3.55;1.20;;;26.10;96.40;;;;;;5059304;28;20051;-71
2022/08/10 12:12:39;;;;;;;3.55;1.42;;;26.20;96.70;;;;;;5049868;28;20072;-71
2022/08/10 12:15:14;;;;;;;3.28;0.93;;;26.10;96.50;;;;;;5053069;28;20037;-70
2022/08/10 12:17:46;;;;;;;7.82;1.45;;;26.20;96.10;;;;;;5070448;28;20075;-71
2022/08/10 12:20:32;;;;;;;6.05;1.50;;;26.30;96.20;;;;;;5057541;28;20052;-71
2022/08/10 12:23:07;;;;;;;8.60;1.50;;;26.10;95.70;;;;;;5049986;28;20473;-70
2022/08/10 12:25:51;;;;;;;4.05;1.17;;;26.10;96.20;;;;;;5050460;28;20048;-70
2022/08/10 12:28:23;;;;;;;3.78;1.80;;;26.10;96.50;;;;;;5050224;28;20052;-70
2022/08/10 12:30:54;;;;;;;4.95;1.13;;;26.00;95.90;;;;;;5050373;28;20076;-72
2022/08/10 12:33:25;;;;;;;8.38;1.50;;;26.20;95.40;;;;;;5050052;28;20503;-69
2022/08/10 12:36:13;;;;;;;2.80;1.40;;;26.20;95.10;;;;;;5050242;28;20044;-69
2022/08/10 12:38:45;;;;;;;1.70;1.27;;;26.10;94.80;;;;;;5050096;28;20044;-68
2022/08/10 12:41:29;;;;;;;2.25;1.13;;;26.00;95.00;;;;;;5050526;28;20040;-68
2022/08/10 12:44:03;;;;;;;5.82;1.40;;;26.20;94.40;;;;;;5049825;28;20033;-70
2022/08/10 12:46:33;;;;;;;4.10;1.40;;;26.30;94.50;;;;;;5050241;28;20105;-70
2022/08/10 12:49:32;;;;;;;6.07;1.48;;;26.30;95.10;;;;;;5050074;28;20044;-70
2022/08/10 12:52:23;;;;;;;7.75;1.40;;;26.50;93.90;;;;;;5039478;28;20080;-71
2022/08/10 13:16:57;;;;;;;5.10;1.40;;;26.50;93.00;;;;;;5049572;28;20052;-69
2022/08/10 13:19:26;;;;;;;2.60;1.35;;;26.50;93.10;;;;;;5050029;28;20118;-69
2022/08/10 13:21:53;;;;;;;3.08;1.02;;;26.60;94.00;;;;;;5050745;28;20052;-69
2022/08/10 13:24:27;;;;;;;3.30;1.63;;;26.60;93.60;;;;;;5066366;28;20047;-68
2022/08/10 13:27:01;;;;;;;2.53;1.30;;;26.50;93.20;;;;;;5067698;28;20033;-69
2022/08/10 13:29:32;;;;;;;3.00;1.45;;;26.60;93.80;;;;;;5053817;28;20043;-68
2022/08/10 13:31:59;;;;;;;3.53;1.45;;;26.60;93.40;;;;;;5052413;28;20052;-70
2022/08/10 13:34:27;;;;;;;3.47;1.70;;;26.60;92.90;;;;;;5053168;28;20064;-69
2022/08/10 13:36:59;;;;;;;3.83;1.50;;;26.50;93.10;;;;;;5053539;28;20053;-69
2022/08/10 13:39:31;;;;;;;;;;;26.50;93.40;;;;;;5052398;28;20045;-69